createdAt,value
2023-05-10T00:01:59.968Z,99628.55
2023-05-10T00:05:03.016Z,99623.45
2023-05-10T00:08:05.961Z,99620.22
2023-05-10T00:11:08.836Z,99619.50
2023-05-10T00:14:12.564Z,99619.96
2023-05-10T00:17:15.337Z,99619.43
2023-05-10T00:20:18.555Z,99616.41
2023-05-10T00:23:21.536Z,99614.59
2023-05-10T00:26:24.288Z,99608.77
2023-05-10T00:29:29.379Z,99607.16
2023-05-10T00:32:32.370Z,99606.23
2023-05-10T00:35:35.366Z,99608.27
2023-05-10T00:38:38.135Z,99600.29
2023-05-10T00:41:41.494Z,99600.05
2023-05-10T00:44:44.482Z,99600.63
2023-05-10T00:47:48.509Z,99599.14
2023-05-10T00:50:51.441Z,99598.06
2023-05-10T00:53:57.090Z,99594.10
2023-05-10T00:56:59.970Z,99590.70
2023-05-10T01:00:04.980Z,99594.48
2023-05-10T01:03:07.925Z,99591.36
2023-05-10T01:06:11.285Z,99590.10
2023-05-10T01:09:14.153Z,99592.67
2023-05-10T01:12:17.018Z,99590.75
2023-05-10T01:15:22.193Z,99588.55
2023-05-10T01:18:27.247Z,99586.50
2023-05-10T01:21:51.652Z,99581.68
2023-05-10T01:25:22.178Z,99583.40
2023-05-10T01:28:37.250Z,99584.67
2023-05-10T01:32:17.622Z,99584.11
2023-05-10T01:35:31.492Z,99582.17
2023-05-10T01:38:44.111Z,99580.64
2023-05-10T01:42:04.467Z,99578.80
2023-05-10T01:45:07.850Z,99575.52
2023-05-10T01:48:12.274Z,99577.09
2023-05-10T01:51:21.598Z,99581.67
2023-05-10T01:54:25.800Z,99579.59
2023-05-10T01:57:34.669Z,99579.24
2023-05-10T02:00:42.808Z,99578.45
2023-05-10T02:03:46.583Z,99576.71
2023-05-10T02:06:50.643Z,99572.15
2023-05-10T02:09:55.571Z,99576.88
2023-05-10T02:13:01.242Z,99576.20
2023-05-10T02:16:06.226Z,99577.30
2023-05-10T02:19:11.073Z,99577.16
2023-05-10T02:22:15.653Z,99573.43
2023-05-10T02:25:21.133Z,99573.32
2023-05-10T02:28:26.077Z,99566.91
2023-05-10T02:31:29.082Z,99564.75
2023-05-10T02:34:32.857Z,99563.73
2023-05-10T02:37:38.503Z,99568.14
2023-05-10T02:40:43.570Z,99565.80
2023-05-10T02:43:48.088Z,99567.75
2023-05-10T02:46:51.101Z,99565.63
2023-05-10T02:49:54.588Z,99563.98
2023-05-10T02:53:03.168Z,99562.80
2023-05-10T02:56:14.413Z,99557.94
2023-05-10T02:59:17.401Z,99555.54
2023-05-10T03:02:22.229Z,99553.02
2023-05-10T03:05:25.545Z,99551.82
2023-05-10T03:08:30.562Z,99561.35
2023-05-10T03:11:55.413Z,99561.02
2023-05-10T03:15:32.425Z,99561.77
2023-05-10T03:19:04.514Z,99562.23
2023-05-10T03:22:11.933Z,99555.46
2023-05-10T03:25:17.829Z,99556.32
2023-05-10T03:28:23.075Z,99548.70
2023-05-10T03:31:26.550Z,99548.14
2023-05-10T03:34:32.412Z,99544.33
2023-05-10T03:37:35.943Z,99547.05
2023-05-10T03:40:38.952Z,99543.86
2023-05-10T03:43:42.241Z,99544.14
2023-05-10T03:46:45.069Z,99543.27
2023-05-10T03:49:48.028Z,99543.46
2023-05-10T03:52:52.977Z,99536.38
2023-05-10T03:55:56.962Z,99540.28
2023-05-10T03:59:00.192Z,99543.86
2023-05-10T04:02:03.740Z,99541.94
2023-05-10T04:05:07.335Z,99542.98
2023-05-10T04:08:10.344Z,99547.88
2023-05-10T04:11:13.833Z,99550.05
2023-05-10T04:14:17.517Z,99554.16
2023-05-10T04:17:20.293Z,99554.02
2023-05-10T04:20:23.259Z,99553.67
2023-05-10T04:23:26.148Z,99546.02
2023-05-10T04:26:28.953Z,99551.09
2023-05-10T04:29:31.949Z,99553.77
2023-05-10T04:32:34.801Z,99553.08
2023-05-10T04:35:38.015Z,99550.15
2023-05-10T04:38:41.105Z,99549.92
2023-05-10T04:41:43.847Z,99549.09
2023-05-10T04:44:46.559Z,99551.44
2023-05-10T04:47:49.332Z,99548.03
2023-05-10T04:50:52.549Z,99548.89
2023-05-10T04:54:05.199Z,99545.48
2023-05-10T04:57:09.063Z,99543.23
2023-05-10T05:00:12.608Z,99544.77
2023-05-10T05:03:16.014Z,99539.77
2023-05-10T05:06:18.885Z,99543.30
2023-05-10T05:09:21.667Z,99541.64
2023-05-10T05:12:24.513Z,99544.83
2023-05-10T05:15:27.548Z,99538.11
2023-05-10T05:18:30.282Z,99536.98
2023-05-10T05:21:33.563Z,99532.61
2023-05-10T05:24:39.144Z,99532.98
2023-05-10T05:27:42.238Z,99536.59
2023-05-10T05:30:45.425Z,99537.92
2023-05-10T05:33:48.212Z,99538.22
2023-05-10T05:36:51.114Z,99536.63
2023-05-10T05:39:55.471Z,99532.89
2023-05-10T05:42:58.190Z,99533.98
2023-05-10T05:46:01.045Z,99534.54
2023-05-10T05:49:03.871Z,99532.51
2023-05-10T05:52:06.654Z,99530.17
2023-05-10T05:55:09.914Z,99529.08
2023-05-10T05:58:12.984Z,99529.58
2023-05-10T06:01:15.707Z,99527.41
2023-05-10T06:04:18.543Z,99530.10
2023-05-10T06:07:21.464Z,99526.90
2023-05-10T06:10:24.249Z,99522.08
2023-05-10T06:13:33.166Z,99523.81
2023-05-10T06:16:36.313Z,99520.98
2023-05-10T06:19:39.107Z,99521.40
2023-05-10T06:22:42.348Z,99522.15
2023-05-10T06:25:45.039Z,99522.61
2023-05-10T06:28:47.777Z,99522.58
2023-05-10T06:31:50.622Z,99523.17
2023-05-10T06:34:53.441Z,99514.75
2023-05-10T06:37:56.540Z,99516.06
2023-05-10T06:40:59.271Z,99515.64
2023-05-10T06:44:02.032Z,99517.63
2023-05-10T06:47:04.942Z,99521.27
2023-05-10T06:50:09.497Z,99522.33
2023-05-10T06:53:13.120Z,99520.41
2023-05-10T06:56:15.870Z,99519.25
2023-05-10T06:59:20.188Z,99522.79
2023-05-10T07:02:23.813Z,99519.67
2023-05-10T07:05:28.865Z,99518.42
2023-05-10T07:08:32.860Z,99521.15
2023-05-10T07:11:36.225Z,99524.79
2023-05-10T07:14:38.995Z,99522.66
2023-05-10T07:17:43.206Z,99521.30
2023-05-10T07:20:47.765Z,99517.22
2023-05-10T07:23:51.184Z,99519.21
2023-05-10T07:26:53.900Z,99524.52
2023-05-10T07:29:57.592Z,99525.20
2023-05-10T07:33:00.391Z,99529.89
2023-05-10T07:36:03.565Z,99526.66
2023-05-10T07:39:06.326Z,99528.05
2023-05-10T07:42:09.473Z,99530.14
2023-05-10T07:45:12.434Z,99526.55
2023-05-10T07:48:15.168Z,99526.19
2023-05-10T07:51:18.026Z,99525.83
2023-05-10T07:54:20.756Z,99519.21
2023-05-10T07:57:23.871Z,99514.71
2023-05-10T08:00:26.697Z,99514.64
2023-05-10T08:03:29.476Z,99513.88
2023-05-10T08:06:32.438Z,99513.95
2023-05-10T08:09:35.268Z,99512.09
2023-05-10T08:12:39.297Z,99509.63
2023-05-10T08:15:42.267Z,99521.00
2023-05-10T08:18:47.998Z,99512.27
2023-05-10T08:21:50.955Z,99512.16
2023-05-10T08:24:53.733Z,99513.96
2023-05-10T08:27:56.476Z,99509.89
2023-05-10T08:30:59.295Z,99507.14
2023-05-10T08:34:02.334Z,99500.17
2023-05-10T08:37:05.274Z,99503.66
2023-05-10T08:40:12.491Z,99504.89
2023-05-10T08:43:18.055Z,99502.87
2023-05-10T08:46:23.048Z,99499.10
2023-05-10T08:49:31.834Z,99508.58
2023-05-10T08:52:40.333Z,99501.17
2023-05-10T08:55:43.882Z,99506.88
2023-05-10T08:58:47.082Z,99494.30
2023-05-10T09:01:51.642Z,99497.83
2023-05-10T09:04:54.547Z,99501.63
2023-05-10T09:07:57.769Z,99497.95
2023-05-10T09:11:02.499Z,99495.94
2023-05-10T09:14:05.481Z,99495.93
2023-05-10T09:17:08.541Z,99486.45
2023-05-10T09:20:11.825Z,99479.37
2023-05-10T09:23:14.597Z,99482.40
2023-05-10T09:26:17.349Z,99479.83
2023-05-10T09:29:20.187Z,99475.17
2023-05-10T09:32:24.061Z,99476.65
2023-05-10T09:35:30.145Z,99478.77
2023-05-10T09:38:46.388Z,99478.42
2023-05-10T09:41:49.513Z,99472.14
2023-05-10T09:44:52.284Z,99475.92
2023-05-10T09:47:56.144Z,99480.16
2023-05-10T09:50:59.350Z,99479.10
2023-05-10T09:54:20.218Z,99472.92
2023-05-10T09:57:24.162Z,99474.08
2023-05-10T10:00:27.407Z,99471.65
2023-05-10T10:03:31.301Z,99466.04
2023-05-10T10:06:38.735Z,99457.23
2023-05-10T10:09:41.803Z,99456.71
2023-05-10T10:12:45.709Z,99453.41
2023-05-10T10:15:52.057Z,99455.63
2023-05-10T10:18:55.674Z,99451.04
2023-05-10T10:21:59.963Z,99453.34
2023-05-10T10:25:03.125Z,99442.49
2023-05-10T10:28:19.725Z,99448.08
2023-05-10T10:31:33.497Z,99441.98
2023-05-10T10:34:36.680Z,99445.30
2023-05-10T10:37:48.343Z,99440.12
2023-05-10T10:41:13.001Z,99451.89
2023-05-10T10:44:40.194Z,99442.84
2023-05-10T10:47:44.262Z,99449.84
2023-05-10T10:50:47.825Z,99443.73
2023-05-10T10:53:50.616Z,99445.74
2023-05-10T10:57:14.606Z,99431.81
2023-05-10T11:00:24.826Z,99434.73
2023-05-10T11:03:30.012Z,99434.61
2023-05-10T11:06:34.715Z,99423.05
2023-05-10T11:09:41.673Z,99432.59
2023-05-10T11:13:05.395Z,99424.34
2023-05-10T11:16:13.512Z,99426.34
2023-05-10T11:19:17.868Z,99428.04
2023-05-10T11:22:20.675Z,99426.00
2023-05-10T11:25:29.357Z,99420.51
2023-05-10T11:28:33.282Z,99418.22
2023-05-10T11:31:36.555Z,99417.36
2023-05-10T11:34:39.976Z,99420.17
2023-05-10T11:37:44.691Z,99407.74
2023-05-10T11:40:47.596Z,99404.93
2023-05-10T11:43:55.747Z,99398.25
2023-05-10T11:47:02.626Z,99405.05
2023-05-10T11:50:06.673Z,99409.73
2023-05-10T11:53:09.543Z,99406.57
2023-05-10T11:56:12.581Z,99401.96
2023-05-10T11:59:16.184Z,99407.41
2023-05-10T12:02:19.205Z,99398.96
2023-05-10T12:05:22.580Z,99398.05
2023-05-10T12:08:28.273Z,99404.75
2023-05-10T12:11:31.236Z,99395.27
2023-05-10T12:14:36.763Z,99401.46
2023-05-10T12:17:43.431Z,99401.12
2023-05-10T12:20:46.507Z,99404.84
2023-05-10T12:23:53.855Z,99399.51
2023-05-10T12:26:56.576Z,99403.92
2023-05-10T12:30:01.006Z,99399.02
2023-05-10T12:33:11.157Z,99398.70
2023-05-10T12:36:16.152Z,99406.88
2023-05-10T12:39:19.006Z,99394.14
2023-05-10T12:42:21.802Z,99389.29
2023-05-10T12:45:24.611Z,99395.56
2023-05-10T12:48:29.747Z,99392.18
2023-05-10T12:51:32.789Z,99390.69
2023-05-10T12:54:35.654Z,99389.50
2023-05-10T12:57:38.364Z,99383.47
2023-05-10T13:00:41.228Z,99381.04
2023-05-10T13:03:46.740Z,99374.55
2023-05-10T13:06:49.514Z,99372.42
2023-05-10T13:09:52.475Z,99382.85
2023-05-10T13:12:55.266Z,99380.28
2023-05-10T13:15:58.000Z,99384.61
2023-05-10T13:19:00.976Z,99382.53
2023-05-10T13:22:04.093Z,99369.24
2023-05-10T13:25:07.150Z,99362.45
2023-05-10T13:28:10.101Z,99364.18
2023-05-10T13:31:13.004Z,99363.17
2023-05-10T13:34:16.109Z,99354.23
2023-05-10T13:37:18.894Z,99357.68
2023-05-10T13:40:21.691Z,99355.86
2023-05-10T13:43:25.088Z,99357.97
2023-05-10T13:46:27.894Z,99354.49
2023-05-10T13:49:30.688Z,99350.80
2023-05-10T13:52:33.559Z,99344.53
2023-05-10T13:58:59.367Z,99341.95
2023-05-10T14:02:04.929Z,99346.89
2023-05-10T14:05:08.600Z,99338.88
2023-05-10T14:08:12.065Z,99336.27
2023-05-10T14:11:15.408Z,99335.52
2023-05-10T14:14:18.216Z,99336.65
2023-05-10T14:17:21.023Z,99337.83
2023-05-10T14:20:23.772Z,99335.48
2023-05-10T14:23:26.986Z,99332.70
2023-05-10T14:26:29.992Z,99333.89
2023-05-10T14:29:33.175Z,99334.86
2023-05-10T14:32:37.625Z,99342.33
2023-05-10T14:35:40.738Z,99338.77
2023-05-10T14:38:43.511Z,99331.34
2023-05-10T14:41:46.783Z,99330.96
2023-05-10T14:44:49.748Z,99332.59
2023-05-10T14:47:52.655Z,99337.44
2023-05-10T14:50:55.675Z,99341.90
2023-05-10T14:53:58.406Z,99337.32
2023-05-10T14:57:01.714Z,99341.81
2023-05-10T15:00:05.393Z,99336.75
2023-05-10T15:03:09.114Z,99337.63
2023-05-10T15:06:14.934Z,99331.52
2023-05-10T15:09:17.827Z,99331.66
2023-05-10T15:12:21.422Z,99325.45
2023-05-10T15:15:24.603Z,99326.21
2023-05-10T15:18:27.403Z,99332.48
2023-05-10T15:21:31.834Z,99330.73
2023-05-10T15:24:35.372Z,99335.53
2023-05-10T15:27:38.221Z,99337.25
2023-05-10T15:30:41.190Z,99335.61
2023-05-10T15:33:44.111Z,99325.64
2023-05-10T15:36:46.924Z,99329.61
2023-05-10T15:39:50.031Z,99328.64
2023-05-10T15:42:52.781Z,99328.44
2023-05-10T15:45:55.577Z,99326.15
2023-05-10T15:48:59.731Z,99330.20
2023-05-10T15:52:02.691Z,99329.09
2023-05-10T15:55:12.747Z,99335.53
2023-05-10T15:58:15.778Z,99333.56
2023-05-10T16:01:18.688Z,99335.02
2023-05-10T16:04:23.642Z,99333.48
2023-05-10T16:07:26.462Z,99336.01
2023-05-10T16:10:33.195Z,99336.70
2023-05-10T16:13:36.008Z,99334.94
2023-05-10T16:16:38.932Z,99332.14
2023-05-10T16:19:41.877Z,99340.50
2023-05-10T16:22:44.714Z,99337.32
2023-05-10T16:30:11.539Z,99335.89
2023-05-10T16:33:14.602Z,99343.36
2023-05-10T16:36:17.393Z,99345.51
2023-05-10T16:39:20.183Z,99345.45
2023-05-10T16:42:24.268Z,99346.23
2023-05-10T16:45:27.067Z,99349.61
2023-05-10T16:48:29.961Z,99348.34
2023-05-10T16:51:32.734Z,99345.07
2023-05-10T16:54:35.650Z,99346.86
2023-05-10T16:57:38.470Z,99352.02
2023-05-10T17:00:41.459Z,99352.23
2023-05-10T17:03:44.318Z,99352.02
2023-05-10T17:06:47.244Z,99356.00
2023-05-10T17:09:50.012Z,99358.91
2023-05-10T17:12:53.763Z,99359.67
2023-05-10T17:15:57.070Z,99366.58
2023-05-10T17:19:00.024Z,99363.77
2023-05-10T17:22:03.095Z,99370.05
2023-05-10T17:25:06.625Z,99371.34
2023-05-10T17:28:09.455Z,99374.80
2023-05-10T17:31:12.252Z,99375.58
2023-05-10T17:34:15.057Z,99377.45
2023-05-10T17:37:18.028Z,99379.73
2023-05-10T17:40:21.002Z,99382.95
2023-05-10T17:43:23.980Z,99386.06
2023-05-10T17:46:26.750Z,99393.05
2023-05-10T17:49:29.708Z,99391.96
2023-05-10T17:52:33.719Z,99394.85
2023-05-10T17:55:39.330Z,99398.96
2023-05-10T17:58:42.149Z,99399.91
2023-05-10T18:01:44.931Z,99403.20
2023-05-10T18:04:49.376Z,99409.22
2023-05-10T18:07:52.276Z,99410.26
2023-05-10T18:10:55.144Z,99412.34
2023-05-10T18:13:58.187Z,99415.10
2023-05-10T18:17:01.076Z,99417.17
2023-05-10T18:20:04.530Z,99417.77
2023-05-10T18:23:07.523Z,99421.27
2023-05-10T18:26:10.334Z,99418.57
2023-05-10T18:29:13.110Z,99421.70
2023-05-10T18:32:16.409Z,99427.36
2023-05-10T18:35:19.520Z,99430.83
2023-05-10T18:38:22.621Z,99433.02
2023-05-10T18:41:26.950Z,99436.04
2023-05-10T18:44:29.684Z,99442.34
2023-05-10T18:47:32.416Z,99451.38
2023-05-10T18:50:35.280Z,99455.52
2023-05-10T18:53:38.701Z,99456.25
2023-05-10T18:56:47.538Z,99458.24
2023-05-10T18:59:50.361Z,99464.71
2023-05-10T19:02:53.756Z,99467.17
2023-05-10T19:05:56.683Z,99470.27
2023-05-10T19:09:00.104Z,99473.80
2023-05-10T19:12:02.984Z,99478.66
2023-05-10T19:15:06.603Z,99479.61
2023-05-10T19:18:09.767Z,99481.44
2023-05-10T19:21:12.855Z,99477.29
2023-05-10T19:24:15.676Z,99477.17
2023-05-10T19:27:18.591Z,99474.63
2023-05-10T19:30:21.520Z,99478.32
2023-05-10T19:33:24.239Z,99483.33
2023-05-10T19:36:27.121Z,99482.77
2023-05-10T19:39:32.566Z,99482.33
2023-05-10T19:42:35.512Z,99488.61
2023-05-10T19:45:38.292Z,99487.83
2023-05-10T19:48:42.074Z,99488.33
2023-05-10T19:51:44.809Z,99488.53
2023-05-10T19:54:47.539Z,99490.00
2023-05-10T19:57:50.694Z,99492.45
2023-05-10T20:00:53.476Z,99493.45
2023-05-10T20:03:57.051Z,99497.36
2023-05-10T20:06:59.897Z,99497.64
2023-05-10T20:10:03.381Z,99501.46
2023-05-10T20:13:06.105Z,99500.58
2023-05-10T20:16:08.960Z,99500.33
2023-05-10T20:19:12.377Z,99498.51
2023-05-10T20:22:15.306Z,99494.69
2023-05-10T20:25:18.997Z,99498.27
2023-05-10T20:28:23.977Z,99495.15
2023-05-10T20:31:26.833Z,99494.59
2023-05-10T20:34:30.018Z,99494.64
2023-05-10T20:37:32.751Z,99491.23
2023-05-10T20:40:36.674Z,99494.06
2023-05-10T20:43:39.547Z,99493.02
2023-05-10T20:46:42.913Z,99493.64
2023-05-10T20:49:45.798Z,99493.91
2023-05-10T20:52:51.010Z,99498.63
2023-05-10T20:55:53.895Z,99496.61
2023-05-10T20:58:56.869Z,99497.88
2023-05-10T21:02:00.005Z,99504.27
2023-05-10T21:05:02.958Z,99503.58
2023-05-10T21:08:06.184Z,99503.84
2023-05-10T21:11:08.967Z,99503.01
2023-05-10T21:14:11.689Z,99503.67
2023-05-10T21:17:14.747Z,99508.76
2023-05-10T21:20:17.764Z,99509.45
2023-05-10T21:23:20.837Z,99503.98
2023-05-10T21:26:23.707Z,99504.60
2023-05-10T21:29:27.402Z,99506.27
2023-05-10T21:32:30.200Z,99511.92
2023-05-10T21:35:33.036Z,99511.80
2023-05-10T21:38:35.861Z,99511.02
2023-05-10T21:41:38.609Z,99515.48
2023-05-10T21:44:41.370Z,99516.04
2023-05-10T21:47:44.319Z,99515.67
2023-05-10T21:50:47.939Z,99519.89
2023-05-10T21:53:50.956Z,99519.71
2023-05-10T21:56:53.734Z,99521.67
2023-05-10T21:59:56.742Z,99522.53
2023-05-10T22:02:59.590Z,99526.27
2023-05-10T22:06:02.467Z,99524.10
2023-05-10T22:09:05.307Z,99528.02
2023-05-10T22:12:08.182Z,99534.02
2023-05-10T22:15:11.559Z,99534.11
2023-05-10T22:18:14.284Z,99533.27
2023-05-10T22:21:17.196Z,99536.26
2023-05-10T22:24:20.028Z,99538.94
2023-05-10T22:27:22.932Z,99543.77
2023-05-10T22:30:25.858Z,99545.34
2023-05-10T22:33:28.741Z,99552.09
2023-05-10T22:36:32.505Z,99550.08
2023-05-10T22:39:35.567Z,99551.46
2023-05-10T22:42:38.379Z,99552.80
2023-05-10T22:45:41.155Z,99554.87
2023-05-10T22:48:43.881Z,99557.58
2023-05-10T22:51:46.715Z,99559.17
2023-05-10T22:54:49.734Z,99559.72
2023-05-10T22:57:52.709Z,99557.67
2023-05-10T23:00:55.969Z,99561.67
2023-05-10T23:03:59.588Z,99558.98
2023-05-10T23:07:02.423Z,99560.87
2023-05-10T23:10:05.708Z,99562.48
2023-05-10T23:13:08.452Z,99562.17
2023-05-10T23:16:11.318Z,99564.82
2023-05-10T23:19:14.266Z,99560.02
2023-05-10T23:22:17.042Z,99561.62
2023-05-10T23:25:19.773Z,99560.52
2023-05-10T23:28:22.507Z,99559.68
2023-05-10T23:31:25.351Z,99561.65
2023-05-10T23:34:28.146Z,99560.64
2023-05-10T23:37:31.099Z,99560.90
2023-05-10T23:40:35.531Z,99558.92
2023-05-10T23:43:38.312Z,99559.52
2023-05-10T23:46:41.165Z,99560.13
2023-05-10T23:49:44.088Z,99555.16
2023-05-10T23:52:46.870Z,99557.52
2023-05-10T23:55:50.279Z,99560.42
2023-05-10T23:58:53.007Z,99562.79
